Time;durP1;ratioP1;P1;durP2;ratioP2;P2;SDS_P1;SDS_P2;PMS_P1;PMS_P2;Temp;Humidity;BMP_temperature;BMP_pressure;BME280_temperature;BME280_humidity;BME280_pressure;Samples;Min_cycle;Max_cycle;Signal;HPM_P1;HPM_P2
2023/05/27 00:00:19;;;;;;;13.43;2.97;;;;;;;12.85;67.47;101358.66;5098582;28;20041;-87
2023/05/27 00:02:46;;;;;;;14.30;3.30;;;;;;;12.83;68.25;101359.63;5097519;28;20119;-86
2023/05/27 00:05:13;;;;;;;14.02;2.90;;;;;;;12.90;67.85;101375.28;5079004;28;20047;-88
2023/05/27 00:07:41;;;;;;;13.68;3.33;;;;;;;12.94;68.66;101382.19;5094103;28;20044;-88
2023/05/27 00:10:10;;;;;;;10.07;2.97;;;;;;;12.86;68.63;101364.84;5090794;28;20094;-88
2023/05/27 00:12:37;;;;;;;9.20;2.78;;;;;;;12.97;68.15;101374.09;5089225;28;20128;-88
2023/05/27 00:15:04;;;;;;;9.68;2.92;;;;;;;12.94;68.24;101374.22;5089387;28;20036;-87
2023/05/27 00:17:36;;;;;;;10.43;3.08;;;;;;;12.91;68.71;101382.31;5090196;28;20044;-88
2023/05/27 00:20:07;;;;;;;12.02;3.10;;;;;;;12.80;68.60;101355.31;5087500;28;20049;-89
2023/05/27 00:22:53;;;;;;;9.32;2.90;;;;;;;12.84;69.50;101382.63;5084917;28;20047;-88
2023/05/27 00:25:28;;;;;;;11.88;3.28;;;;;;;12.75;69.66;101367.91;5082615;28;20051;-89
2023/05/27 00:27:58;;;;;;;9.60;2.90;;;;;;;12.51;69.93;101337.91;5084028;28;20372;-88
2023/05/27 00:30:42;;;;;;;14.02;3.35;;;;;;;12.68;70.22;101366.44;5085681;28;20044;-87
2023/05/27 00:33:09;;;;;;;14.35;3.47;;;;;;;12.70;70.44;101374.34;5084492;28;20048;-88
2023/05/27 00:35:41;;;;;;;10.25;3.10;;;;;;;12.72;70.47;101375.16;5085442;28;20040;-88
2023/05/27 00:38:22;;;;;;;12.73;2.80;;;;;;;12.68;71.44;101374.41;5069807;28;20041;-88
2023/05/27 00:40:52;;;;;;;11.35;2.67;;;;;;;12.63;71.69;101381.69;5064722;28;20049;-87
2023/05/27 00:43:30;;;;;;;11.82;2.75;;;;;;;12.40;71.82;101347.22;5063820;28;20098;-87
2023/05/27 00:45:57;;;;;;;;;;;;;;;12.62;72.07;101387.94;5064425;28;20116;-87
2023/05/27 00:48:26;;;;;;;6.93;2.50;;;;;;;12.54;71.76;101374.09;5064451;28;19916;-88
2023/05/27 00:50:55;;;;;;;12.10;3.22;;;;;;;12.55;72.02;101381.16;5067029;28;20131;-88
2023/05/27 00:53:42;;;;;;;7.70;3.00;;;;;;;12.52;72.92;101379.47;5070740;28;20037;-87
2023/05/27 00:56:11;;;;;;;9.23;2.90;;;;;;;12.48;73.51;101380.50;5086062;28;20475;-87
2023/05/27 00:58:43;;;;;;;11.18;3.22;;;;;;;12.46;73.85;101387.69;5070889;28;20083;-88
2023/05/27 01:01:19;;;;;;;9.85;3.30;;;;;;;12.45;73.48;101382.41;5088572;28;20047;-87
2023/05/27 01:03:56;;;;;;;10.95;3.20;;;;;;;12.43;73.86;101379.84;5087816;28;20052;-88
2023/05/27 01:06:55;;;;;;;9.70;2.92;;;;;;;12.36;74.19;101382.78;5086263;28;20048;-87
2023/05/27 01:09:40;;;;;;;10.63;3.03;;;;;;;12.27;74.82;101382.22;5084671;28;20051;-87
2023/05/27 01:12:25;;;;;;;10.50;3.30;;;;;;;12.24;75.72;101382.34;5083492;28;20045;-88
2023/05/27 01:14:58;;;;;;;13.00;3.13;;;;;;;12.20;76.16;101377.19;5082936;28;20036;-88
2023/05/27 01:17:30;;;;;;;14.73;3.45;;;;;;;12.13;76.19;101381.88;5083473;28;20040;-88
2023/05/27 01:20:05;;;;;;;13.95;3.60;;;;;;;12.08;76.74;101380.31;5082854;28;20110;-87
2023/05/27 01:22:59;;;;;;;12.70;3.30;;;;;;;11.93;77.33;101371.16;5079526;28;20040;-87
2023/05/27 01:25:28;;;;;;;11.18;3.22;;;;;;;12.08;76.88;101380.31;5087246;28;20051;-87
2023/05/27 01:27:56;;;;;;;14.57;3.40;;;;;;;11.99;77.35;101373.56;5047977;28;20041;-88
2023/05/27 01:30:23;;;;;;;12.20;2.90;;;;;;;12.02;77.40;101369.91;5020642;28;20057;-89
2023/05/27 01:33:21;;;;;;;15.23;3.78;;;;;;;11.87;77.51;101352.78;5018704;28;20072;-89
2023/05/27 01:36:26;;;;;;;15.38;3.72;;;;;;;11.95;78.40;101371.97;5032122;28;20163;-88
2023/05/27 01:38:56;;;;;;;12.75;3.08;;;;;;;11.93;79.36;101360.53;5044320;28;20052;-88
2023/05/27 01:41:24;;;;;;;13.00;3.08;;;;;;;11.77;79.44;101341.66;5029910;28;20049;-87
2023/05/27 01:43:58;;;;;;;12.25;2.97;;;;;;;11.84;80.15;101369.69;5045960;28;20126;-88
2023/05/27 01:46:27;;;;;;;10.77;3.38;;;;;;;11.84;80.78;101371.47;5009825;28;20049;-87
2023/05/27 01:49:00;;;;;;;15.13;3.08;;;;;;;11.75;81.07;101371.78;5024470;28;20137;-87
2023/05/27 01:51:30;;;;;;;13.23;3.70;;;;;;;11.71;82.30;101372.81;5008444;28;20437;-87
2023/05/27 01:53:57;;;;;;;12.15;3.78;;;;;;;11.69;82.84;101370.19;5083046;28;20109;-87
2023/05/27 01:56:29;;;;;;;11.73;3.70;;;;;;;11.69;82.50;101367.56;5094793;28;20041;-86
2023/05/27 01:58:57;;;;;;;14.60;3.75;;;;;;;11.68;83.71;101367.59;5094883;28;20049;-85
2023/05/27 02:01:25;;;;;;;12.70;3.38;;;;;;;11.64;83.91;101363.34;5095823;28;20071;-86
2023/05/27 02:04:03;;;;;;;14.50;3.88;;;;;;;11.60;84.10;101352.84;5090359;28;20111;-87
2023/05/27 02:06:35;;;;;;;14.35;3.45;;;;;;;11.56;84.57;101356.50;5081049;28;20404;-87
2023/05/27 02:09:04;;;;;;;9.82;3.30;;;;;;;11.52;85.32;101365.50;5064054;28;20048;-88
2023/05/27 02:11:32;;;;;;;13.80;3.55;;;;;;;11.32;86.87;101333.53;5065210;28;20053;-87
2023/05/27 02:14:01;;;;;;;11.70;3.13;;;;;;;11.41;86.87;101353.53;5082397;28;20052;-88
2023/05/27 02:16:33;;;;;;;12.80;3.88;;;;;;;11.44;86.82;101349.00;5090232;28;20043;-86
2023/05/27 02:19:08;;;;;;;16.70;3.65;;;;;;;11.35;87.27;101337.84;5098599;28;20048;-86
2023/05/27 02:21:35;;;;;;;13.70;3.75;;;;;;;11.25;88.37;101326.69;5080070;28;20047;-86
2023/05/27 02:24:04;;;;;;;15.23;3.67;;;;;;;11.37;88.25;101350.13;5079709;28;20033;-88
2023/05/27 02:26:31;;;;;;;14.82;3.78;;;;;;;11.30;89.01;101358.38;5097120;28;20036;-88
2023/05/27 02:29:00;;;;;;;13.63;4.25;;;;;;;11.19;90.01;101333.06;5096320;28;20044;-88
2023/05/27 02:31:29;;;;;;;14.85;3.72;;;;;;;11.25;90.66;101358.50;5098137;28;20037;-87
2023/05/27 02:33:58;;;;;;;12.63;3.45;;;;;;;11.24;91.13;101346.16;5081605;28;20108;-86
2023/05/27 02:36:26;;;;;;;11.90;3.80;;;;;;;11.20;91.12;101336.59;5076504;28;20044;-87
2023/05/27 02:39:06;;;;;;;16.00;4.28;;;;;;;11.11;91.51;101337.78;5075055;28;20058;-88
2023/05/27 02:41:34;;;;;;;13.52;3.70;;;;;;;11.07;92.24;101338.78;5090857;28;20048;-88
2023/05/27 02:44:03;;;;;;;13.32;3.78;;;;;;;11.07;93.12;101345.88;5089163;28;20048;-88
2023/05/27 02:46:38;;;;;;;17.33;4.28;;;;;;;11.00;93.84;101347.88;5092707;28;20115;-88
2023/05/27 02:49:20;;;;;;;12.13;4.00;;;;;;;10.87;94.27;101334.16;5093796;28;20116;-87
2023/05/27 02:52:19;;;;;;;11.40;4.25;;;;;;;10.95;94.50;101346.31;5042946;28;20063;-87
2023/05/27 02:54:49;;;;;;;12.68;4.05;;;;;;;10.82;95.08;101325.53;5042408;28;20133;-87
2023/05/27 02:57:18;;;;;;;14.93;4.00;;;;;;;10.94;95.41;101344.56;5036101;28;20097;-88
2023/05/27 02:59:52;;;;;;;12.35;3.95;;;;;;;10.96;95.94;101340.94;5036189;28;20093;-87
2023/05/27 03:02:33;;;;;;;12.93;3.75;;;;;;;10.86;95.99;101329.78;5030593;28;20045;-88
2023/05/27 03:05:03;;;;;;;17.73;4.47;;;;;;;10.87;96.32;101336.81;5027838;28;20068;-88
2023/05/27 03:07:36;;;;;;;14.52;4.03;;;;;;;10.72;97.31;101312.59;5029201;28;20045;-89
2023/05/27 03:10:07;;;;;;;14.77;4.35;;;;;;;10.83;97.39;101331.69;5047193;28;20055;-87
2023/05/27 03:12:37;;;;;;;13.48;4.35;;;;;;;10.78;97.79;101323.88;5085396;28;20119;-88
2023/05/27 03:15:15;;;;;;;12.10;4.32;;;;;;;10.82;97.92;101332.59;5085426;28;20071;-89
2023/05/27 03:17:47;;;;;;;11.20;4.47;;;;;;;10.79;98.52;101330.03;5084944;28;20103;-88
2023/05/27 03:20:27;;;;;;;16.73;4.28;;;;;;;10.78;98.28;101334.47;5071705;28;20041;-87
2023/05/27 03:22:57;;;;;;;15.20;4.75;;;;;;;10.77;99.09;101338.03;5092754;28;20044;-86
2023/05/27 03:25:24;;;;;;;14.40;4.53;;;;;;;10.74;98.96;101337.25;5076986;28;20045;-88
2023/05/27 03:27:52;;;;;;;12.65;3.80;;;;;;;10.73;99.21;101336.41;5085158;28;20048;-87
2023/05/27 03:30:23;;;;;;;17.60;4.53;;;;;;;10.60;100.00;101323.59;5081558;28;20040;-88
2023/05/27 03:32:56;;;;;;;16.48;4.97;;;;;;;10.65;100.00;101341.09;5081781;28;20529;-89
2023/05/27 03:35:32;;;;;;;17.00;4.78;;;;;;;10.64;100.00;101341.13;5083049;28;20036;-88
2023/05/27 03:37:59;;;;;;;14.75;4.85;;;;;;;10.54;100.00;101314.09;5080656;28;20041;-87
2023/05/27 03:40:32;;;;;;;16.50;4.50;;;;;;;10.63;100.00;101327.03;5082772;28;20465;-88
2023/05/27 03:43:00;;;;;;;15.77;4.18;;;;;;;10.65;100.00;101327.84;5079600;28;20052;-88
2023/05/27 03:45:45;;;;;;;14.93;4.63;;;;;;;10.63;100.00;101336.75;5081961;28;20040;-87
2023/05/27 03:48:15;;;;;;;16.38;4.60;;;;;;;10.65;100.00;101335.78;5080783;28;20048;-87
2023/05/27 03:50:42;;;;;;;17.88;4.65;;;;;;;10.54;100.00;101325.56;5081338;28;20045;-88
2023/05/27 03:53:09;;;;;;;17.80;4.85;;;;;;;10.63;100.00;101329.69;5081683;28;20045;-88
2023/05/27 03:55:37;;;;;;;14.65;4.68;;;;;;;10.40;100.00;101289.81;5080450;28;20044;-87
2023/05/27 03:58:07;;;;;;;12.73;4.60;;;;;;;10.61;100.00;101326.22;5081293;28;20049;-87
2023/05/27 04:00:38;;;;;;;22.05;5.60;;;;;;;10.60;100.00;101335.06;5063373;28;20097;-88
2023/05/27 04:03:06;;;;;;;13.63;4.45;;;;;;;10.57;100.00;101329.84;5084386;28;20126;-87
2023/05/27 04:05:35;;;;;;;13.95;4.22;;;;;;;10.58;100.00;101336.91;5088152;28;20045;-87
2023/05/27 04:08:05;;;;;;;18.30;4.90;;;;;;;10.58;100.00;101321.00;5080779;28;20079;-88
2023/05/27 04:10:32;;;;;;;12.05;4.70;;;;;;;10.57;100.00;101319.28;5081141;28;20045;-87
2023/05/27 04:12:59;;;;;;;16.17;4.30;;;;;;;10.64;100.00;101326.13;5080007;28;20112;-87
2023/05/27 04:15:32;;;;;;;13.40;4.35;;;;;;;10.71;100.00;101327.63;5080669;28;20052;-87
2023/05/27 04:18:14;;;;;;;15.30;4.38;;;;;;;10.69;100.00;101329.50;5082601;28;20055;-88
2023/05/27 04:20:48;;;;;;;18.08;4.80;;;;;;;10.56;100.00;101304.28;5080532;28;20040;-88
2023/05/27 04:23:18;;;;;;;20.08;5.20;;;;;;;10.72;100.00;101332.00;5080101;28;20410;-88
2023/05/27 04:26:00;;;;;;;17.35;4.70;;;;;;;10.75;100.00;101331.06;5077943;28;20053;-87
2023/05/27 04:28:36;;;;;;;15.43;4.13;;;;;;;10.76;100.00;101324.84;5064611;28;20044;-87
2023/05/27 04:31:03;;;;;;;15.05;4.57;;;;;;;10.61;100.00;101306.81;5065335;28;20043;-88
2023/05/27 04:33:45;;;;;;;13.48;4.53;;;;;;;10.58;100.00;101299.81;5082532;28;20474;-87
2023/05/27 04:36:16;;;;;;;17.20;4.23;;;;;;;10.76;100.00;101323.06;5082494;28;20043;-87
2023/05/27 04:38:47;;;;;;;12.27;4.47;;;;;;;10.89;100.00;101342.94;5082485;28;20052;-87
2023/05/27 04:41:15;;;;;;;13.40;5.03;;;;;;;10.89;100.00;101329.69;5082937;28;20053;-87
2023/05/27 04:43:43;;;;;;;17.30;4.60;;;;;;;10.80;100.00;101322.03;5082525;28;20044;-88
2023/05/27 04:46:10;;;;;;;19.00;4.65;;;;;;;10.93;100.00;101330.44;5092832;28;20044;-86
2023/05/27 04:48:39;;;;;;;16.05;4.65;;;;;;;11.00;100.00;101336.44;5095927;28;20036;-87
2023/05/27 04:51:15;;;;;;;12.60;4.68;;;;;;;11.06;100.00;101338.84;5094483;28;20040;-87
2023/05/27 04:53:43;;;;;;;15.43;4.60;;;;;;;11.01;100.00;101330.22;5091668;28;20110;-88
2023/05/27 04:56:10;;;;;;;11.20;4.20;;;;;;;11.11;100.00;101343.09;5090804;28;20040;-87
2023/05/27 04:58:48;;;;;;;14.48;5.05;;;;;;;11.13;100.00;101330.66;5075514;28;20037;-88
2023/05/27 05:01:20;;;;;;;16.60;4.25;;;;;;;11.14;99.36;101316.47;5096117;28;20044;-87
2023/05/27 05:04:12;;;;;;;14.68;4.35;;;;;;;11.36;99.94;101342.22;5095109;28;20036;-87
2023/05/27 05:06:42;;;;;;;12.70;4.40;;;;;;;11.48;99.14;101347.97;5081829;28;20060;-87
2023/05/27 05:09:12;;;;;;;15.63;4.80;;;;;;;11.58;97.21;101338.75;5096463;28;20059;-87
2023/05/27 05:11:45;;;;;;;13.77;4.47;;;;;;;11.53;96.95;101311.53;5084190;28;20055;-88
2023/05/27 05:14:14;;;;;;;17.15;4.72;;;;;;;11.75;96.50;101343.47;5082457;28;20047;-88
2023/05/27 05:16:46;;;;;;;17.33;4.75;;;;;;;11.83;95.95;101343.19;5064408;28;20111;-88
2023/05/27 05:19:14;;;;;;;14.75;4.90;;;;;;;11.84;94.38;101329.88;5086303;28;20045;-86
2023/05/27 05:21:41;;;;;;;15.68;4.50;;;;;;;11.93;93.01;101345.47;5092846;28;20045;-88
2023/05/27 05:24:07;;;;;;;17.85;4.72;;;;;;;12.00;92.74;101343.44;5080550;28;20373;-88
2023/05/27 05:26:48;;;;;;;15.63;4.30;;;;;;;11.93;91.65;101321.56;5079937;28;20087;-88
2023/05/27 05:29:15;;;;;;;12.82;4.57;;;;;;;12.10;93.59;101342.19;5078307;28;20064;-87
2023/05/27 05:31:44;;;;;;;16.20;5.05;;;;;;;12.17;90.93;101334.81;5079973;28;20044;-89
2023/05/27 05:34:14;;;;;;;15.05;5.00;;;;;;;12.20;89.23;101338.22;5080466;28;20052;-88
2023/05/27 05:36:42;;;;;;;15.23;5.15;;;;;;;12.20;90.08;101338.22;5066818;28;20079;-88
2023/05/27 05:39:10;;;;;;;16.73;4.88;;;;;;;12.28;90.57;101344.09;5085800;28;20475;-87
2023/05/27 05:41:42;;;;;;;17.77;4.78;;;;;;;12.36;89.00;101349.13;5070243;28;20116;-88
2023/05/27 05:44:13;;;;;;;14.48;4.72;;;;;;;12.40;88.10;101352.53;5088376;28;20110;-88
2023/05/27 05:46:41;;;;;;;16.30;4.65;;;;;;;12.48;90.56;101347.78;5089103;28;20135;-87
2023/05/27 05:49:17;;;;;;;15.32;4.32;;;;;;;12.59;87.46;101345.56;5057343;28;20040;-87
2023/05/27 05:52:03;;;;;;;17.08;4.45;;;;;;;12.69;87.47;101338.94;5084670;28;20048;-88
2023/05/27 05:54:32;;;;;;;11.55;4.05;;;;;;;12.82;86.74;101348.16;5086659;28;20071;-89
2023/05/27 05:57:01;;;;;;;20.77;4.82;;;;;;;12.80;84.69;101335.84;5093785;28;20044;-88
2023/05/27 05:59:42;;;;;;;13.05;4.10;;;;;;;13.01;84.83;101358.88;5082558;28;20033;-88
2023/05/27 06:02:16;;;;;;;14.20;4.82;;;;;;;13.09;85.47;101340.81;5097962;28;20044;-88
2023/05/27 06:04:47;;;;;;;20.13;4.68;;;;;;;13.27;82.19;101348.03;5096544;28;20064;-88
2023/05/27 06:07:16;;;;;;;14.18;4.35;;;;;;;13.42;82.46;101353.63;5072456;28;20053;-88
2023/05/27 06:09:43;;;;;;;14.30;4.70;;;;;;;13.57;82.00;101353.81;5064299;28;20075;-88
2023/05/27 06:12:10;;;;;;;14.35;4.30;;;;;;;13.68;79.99;101329.41;5063811;28;20045;-89
2023/05/27 06:14:40;;;;;;;14.77;4.22;;;;;;;14.03;77.75;101335.75;5063255;28;20068;-88
2023/05/27 06:17:07;;;;;;;13.75;4.20;;;;;;;14.30;75.87;101323.84;5065884;28;20061;-88
2023/05/27 06:19:38;;;;;;;18.17;4.28;;;;;;;14.71;72.94;101323.66;5065411;28;20488;-87
2023/05/27 06:22:07;;;;;;;10.57;4.40;;;;;;;15.20;68.21;101340.72;5066825;28;20106;-88
2023/05/27 06:24:35;;;;;;;9.48;4.05;;;;;;;15.34;66.84;101316.00;5065193;28;20135;-87
2023/05/27 06:27:02;;;;;;;14.95;4.47;;;;;;;15.54;64.74;101350.53;5090967;28;20088;-89
2023/05/27 06:29:39;;;;;;;15.18;4.65;;;;;;;15.56;66.69;101340.66;5072972;28;20036;-88
2023/05/27 06:32:12;;;;;;;13.32;4.28;;;;;;;15.74;66.34;101338.81;5086129;28;20074;-88
2023/05/27 06:34:39;;;;;;;11.07;4.00;;;;;;;15.94;64.51;101343.06;5084961;28;20070;-88
2023/05/27 06:37:12;;;;;;;15.85;4.28;;;;;;;16.06;62.02;101324.56;5085614;28;20131;-90
2023/05/27 06:39:54;;;;;;;12.82;3.78;;;;;;;16.44;64.90;101338.47;5087834;28;20056;-89
2023/05/27 06:42:22;;;;;;;12.02;4.78;;;;;;;16.80;63.10;101334.69;5087000;28;20106;-89
2023/05/27 06:44:50;;;;;;;11.80;4.05;;;;;;;17.05;58.43;101336.78;5080693;28;20044;-88
2023/05/27 06:47:17;;;;;;;8.32;3.22;;;;;;;17.23;57.52;101322.31;5081870;28;20131;-89
2023/05/27 06:49:48;;;;;;;10.85;3.58;;;;;;;17.41;57.10;101331.91;5095199;28;20048;-90
2023/05/27 06:52:20;;;;;;;11.90;4.10;;;;;;;16.97;57.47;101286.41;5096467;28;20028;-88
2023/05/27 06:54:50;;;;;;;11.20;3.92;;;;;;;17.37;61.82;101322.34;5093598;28;20037;-89
2023/05/27 06:57:28;;;;;;;13.00;3.88;;;;;;;17.54;56.27;101300.75;5069298;28;20044;-89
2023/05/27 07:00:05;;;;;;;14.80;4.05;;;;;;;17.81;53.01;101324.13;5068058;28;20112;-89
2023/05/27 07:02:32;;;;;;;13.77;4.30;;;;;;;17.31;52.66;101292.41;5085824;28;20052;-89
2023/05/27 07:05:03;;;;;;;13.93;4.00;;;;;;;17.24;53.16;101320.50;5082730;28;20048;-89
2023/05/27 07:07:34;;;;;;;11.68;3.67;;;;;;;17.10;53.20;101300.78;5065400;28;20107;-89
2023/05/27 07:10:16;;;;;;;10.70;3.80;;;;;;;17.16;54.86;101319.13;5066382;28;20049;-89
2023/05/27 07:12:53;;;;;;;11.15;4.13;;;;;;;17.29;57.76;101316.59;5070438;28;20060;-89
2023/05/27 07:15:34;;;;;;;11.52;4.25;;;;;;;17.60;54.08;101309.38;5071263;28;20039;-90
2023/05/27 07:18:03;;;;;;;10.65;3.47;;;;;;;17.76;54.78;101303.00;5076386;28;20041;-90
2023/05/27 07:20:34;;;;;;;;;;;;;;;17.75;54.67;101313.81;5067036;28;20112;-90
2023/05/27 07:26:55;;;;;;;14.32;3.75;;;;;;;17.96;55.59;101301.72;5074563;28;20067;-88
2023/05/27 07:29:34;;;;;;;12.45;4.03;;;;;;;18.29;52.42;101287.97;5066435;28;20036;-89
2023/05/27 07:32:05;;;;;;;11.15;3.63;;;;;;;18.58;53.08;101297.69;5081685;28;20048;-89
2023/05/27 07:34:35;;;;;;;13.80;4.25;;;;;;;18.73;50.78;101300.34;5084247;28;20053;-91
2023/05/27 07:37:04;;;;;;;14.38;4.30;;;;;;;18.81;49.02;101282.75;5086852;28;20062;-89
2023/05/27 07:39:44;;;;;;;12.25;4.18;;;;;;;18.84;50.09;101287.06;5070439;28;20099;-91
2023/05/27 07:42:24;;;;;;;;;;;;;;;18.81;49.14;101287.28;5085043;28;20043;-90
2023/05/27 07:44:54;;;;;;;10.95;4.25;;;;;;;18.29;49.64;101241.53;5083550;28;19942;-91
2023/05/27 07:47:36;;;;;;;9.63;3.45;;;;;;;18.73;49.47;101292.31;5083901;28;20048;-90
2023/05/27 07:50:13;;;;;;;14.10;4.05;;;;;;;18.58;49.00;101278.03;5087086;28;20068;-90
2023/05/27 07:53:05;;;;;;;11.77;4.47;;;;;;;18.35;50.83;101278.69;5089746;28;20074;-89
2023/05/27 07:55:50;;;;;;;15.20;3.70;;;;;;;18.46;50.65;101279.69;5095993;28;20131;-89
2023/05/27 07:58:21;;;;;;;12.48;4.97;;;;;;;18.48;50.74;101277.78;5090061;28;20040;-90
2023/05/27 08:00:52;;;;;;;9.87;3.40;;;;;;;18.66;49.58;101272.19;5087483;28;20051;-88
2023/05/27 08:03:21;;;;;;;12.98;3.40;;;;;;;18.55;50.22;101286.31;5091888;28;20373;-90
2023/05/27 08:06:04;;;;;;;17.48;3.58;;;;;;;18.75;49.15;101271.56;5073066;28;20059;-89
2023/05/27 08:08:39;;;;;;;12.05;3.70;;;;;;;18.70;49.26;101269.22;5087354;28;20047;-89
2023/05/27 08:11:09;;;;;;;15.25;4.18;;;;;;;18.71;49.97;101270.06;5084861;28;20057;-89
2023/05/27 08:13:36;;;;;;;11.10;3.78;;;;;;;18.64;50.28;101258.03;5072166;28;20048;-88
2023/05/27 08:16:07;;;;;;;16.17;4.00;;;;;;;18.61;50.18;101271.63;5072249;28;20037;-89
2023/05/27 08:18:52;;;;;;;12.25;3.63;;;;;;;18.71;50.19;101265.56;5087286;28;20468;-89
2023/05/27 08:21:36;;;;;;;11.40;3.53;;;;;;;18.92;50.11;101248.00;5087920;28;20057;-89
2023/05/27 08:24:05;;;;;;;11.40;3.80;;;;;;;19.14;49.18;101252.75;5071924;28;20549;-89
2023/05/27 08:26:46;;;;;;;14.82;4.22;;;;;;;19.00;49.00;101242.13;5069911;28;20056;-89
2023/05/27 08:29:32;;;;;;;12.25;3.75;;;;;;;18.99;48.83;101258.31;5083459;28;20377;-90
2023/05/27 08:32:03;;;;;;;11.82;3.88;;;;;;;18.99;47.79;101235.03;5084034;28;20048;-89
2023/05/27 08:35:14;;;;;;;9.55;3.80;;;;;;;19.09;48.43;101245.97;5087097;28;20094;-89
2023/05/27 08:37:45;;;;;;;9.88;3.38;;;;;;;19.08;48.14;101239.75;5074630;28;20147;-89
2023/05/27 08:40:16;;;;;;;12.65;3.08;;;;;;;19.21;49.86;101226.34;5087855;28;20116;-90
2023/05/27 08:42:45;;;;;;;13.90;3.75;;;;;;;19.69;48.83;101234.59;5073237;28;20055;-90
2023/05/27 08:45:13;;;;;;;10.20;3.53;;;;;;;19.93;47.99;101224.78;5069912;28;20059;-90
2023/05/27 08:47:53;;;;;;;11.30;3.75;;;;;;;19.91;45.75;101186.41;5064932;28;20037;-91
2023/05/27 08:51:29;;;;;;;13.30;3.87;;;;;;;20.19;45.37;101226.41;5657237;22;20020;-90
2023/05/27 09:00:29;;;;;;;10.85;3.72;;;;;;;20.26;45.79;101181.09;5007754;28;20054;-89
2023/05/27 09:03:09;;;;;;;10.20;3.35;;;;;;;20.43;44.56;101177.19;5007005;28;20054;-89
2023/05/27 09:05:38;;;;;;;11.07;3.58;;;;;;;20.51;44.58;101178.31;5006486;28;20113;-89
2023/05/27 09:08:06;;;;;;;10.48;3.10;;;;;;;20.79;44.25;101213.88;5004603;28;20088;-89
2023/05/27 09:10:41;;;;;;;12.13;3.55;;;;;;;20.69;44.71;101202.97;5004916;28;20071;-89
2023/05/27 09:13:10;;;;;;;9.75;3.35;;;;;;;20.46;44.32;101175.09;5003375;28;20073;-90
2023/05/27 09:15:41;;;;;;;11.23;3.40;;;;;;;20.47;45.16;101189.41;4963192;28;20037;-89
2023/05/27 09:21:40;;;;;;;10.98;3.40;;;;;;;20.07;45.55;101204.94;4993944;28;20042;-90
2023/05/27 09:24:16;;;;;;;11.48;3.70;;;;;;;19.71;46.30;101179.78;5005259;28;20035;-90
2023/05/27 09:26:57;;;;;;;10.88;3.72;;;;;;;19.79;46.91;101196.22;5002687;28;20049;-90
2023/05/27 09:29:40;;;;;;;11.73;3.50;;;;;;;19.56;45.44;101138.78;5014318;28;20054;-90
2023/05/27 09:32:27;;;;;;;10.00;3.38;;;;;;;20.06;46.10;101190.66;5013286;28;20046;-91
2023/05/27 09:35:07;;;;;;;13.02;3.53;;;;;;;20.23;46.17;101184.88;5013572;28;20419;-89
2023/05/27 09:37:37;;;;;;;11.13;3.90;;;;;;;20.38;45.35;101185.59;5009081;28;20134;-90
2023/05/27 09:43:27;;;;;;;12.60;3.15;;;;;;;20.38;44.73;101174.81;5006110;28;20069;-90
2023/05/27 09:46:11;;;;;;;10.63;3.30;;;;;;;20.31;44.93;101176.22;5005164;28;20058;-90
2023/05/27 09:48:43;;;;;;;11.10;3.33;;;;;;;20.27;44.43;101177.44;5004987;28;20114;-90
2023/05/27 09:51:15;;;;;;;10.90;3.72;;;;;;;20.22;44.52;101171.53;5003587;28;20078;-90
2023/05/27 09:53:47;;;;;;;12.70;3.28;;;;;;;20.46;44.75;101171.56;5004870;28;20047;-91
2023/05/27 09:56:18;;;;;;;13.55;3.72;;;;;;;20.54;45.19;101156.56;5006627;28;20073;-90
2023/05/27 09:58:46;;;;;;;8.50;3.60;;;;;;;20.71;43.88;101163.31;5018385;28;20046;-89
2023/05/27 10:01:17;;;;;;;13.93;3.65;;;;;;;20.58;43.35;101136.50;5031927;28;20099;-89
2023/05/27 10:03:46;;;;;;;10.38;3.58;;;;;;;20.51;43.04;101126.31;5028568;28;20117;-90
2023/05/27 10:06:16;;;;;;;11.02;3.65;;;;;;;20.78;42.97;101159.16;5028747;28;20046;-89
2023/05/27 10:08:56;;;;;;;11.77;3.47;;;;;;;20.57;42.97;101112.41;5025917;28;20459;-90
2023/05/27 10:11:30;;;;;;;11.65;3.28;;;;;;;20.87;42.53;101136.06;5023789;28;20041;-91
2023/05/27 10:14:13;;;;;;;10.90;3.20;;;;;;;20.74;43.00;101103.03;5024163;28;20336;-89
2023/05/27 10:16:53;;;;;;;9.05;3.42;;;;;;;20.55;42.60;101085.63;5021488;28;20430;-89
2023/05/27 10:19:24;;;;;;;13.40;3.33;;;;;;;20.88;42.76;101144.03;5021590;28;20053;-87
2023/05/27 10:21:53;;;;;;;9.63;3.95;;;;;;;20.72;42.86;101104.97;5020922;28;20042;-90
2023/05/27 10:24:33;;;;;;;15.18;3.83;;;;;;;21.05;42.95;101136.47;5019159;28;20053;-90
2023/05/27 10:27:05;;;;;;;9.70;3.28;;;;;;;21.15;42.61;101123.97;5007059;28;20102;-87
2023/05/27 10:29:37;;;;;;;11.30;3.80;;;;;;;21.11;41.12;101092.88;5007645;28;20047;-87
2023/05/27 10:32:07;;;;;;;12.48;3.78;;;;;;;21.11;41.67;101091.03;5022982;28;20049;-89
2023/05/27 10:34:46;;;;;;;9.60;3.40;;;;;;;21.30;42.12;101123.63;5009888;28;20074;-90
2023/05/27 10:37:20;;;;;;;11.13;3.33;;;;;;;21.42;41.42;101123.63;5032892;28;20034;-89
2023/05/27 10:39:55;;;;;;;9.20;3.20;;;;;;;21.57;41.80;101125.94;5034044;28;20044;-89
2023/05/27 10:43:00;;;;;;;12.57;3.55;;;;;;;21.52;40.46;101117.38;4988813;28;20551;-89
2023/05/27 10:46:32;;;;;;;9.65;3.45;;;;;;;21.64;39.90;101120.91;4968436;29;20508;-89
2023/05/27 10:49:11;;;;;;;10.73;3.22;;;;;;;21.47;39.72;101086.41;4983443;28;20043;-89
2023/05/27 10:51:47;;;;;;;;;;;;;;;21.55;40.01;101105.50;4954364;28;20055;-89
2023/05/27 10:54:35;;;;;;;10.35;2.92;;;;;;;21.64;40.72;101115.53;4969358;28;19973;-89
2023/05/27 10:57:10;;;;;;;8.45;3.35;;;;;;;21.77;40.53;101109.97;4950269;29;20051;-88
2023/05/27 10:59:45;;;;;;;8.88;3.40;;;;;;;21.76;40.58;101090.25;4953984;28;20051;-89
2023/05/27 11:02:13;;;;;;;8.55;3.35;;;;;;;21.75;40.75;101077.75;4975344;28;20050;-90
2023/05/27 11:04:40;;;;;;;11.82;3.47;;;;;;;21.94;39.52;101094.13;5006427;28;20042;-90
2023/05/27 11:07:17;;;;;;;10.32;3.78;;;;;;;21.90;39.34;101079.16;5004915;28;20077;-90
2023/05/27 11:09:52;;;;;;;10.25;3.13;;;;;;;22.03;39.52;101070.97;5008138;28;20065;-89
2023/05/27 11:12:32;;;;;;;11.38;3.60;;;;;;;22.23;39.15;101064.72;5026401;28;20061;-88
2023/05/27 11:15:15;;;;;;;10.20;3.53;;;;;;;22.49;38.69;101086.78;5029880;28;20049;-90
2023/05/27 11:18:00;;;;;;;10.43;4.00;;;;;;;22.46;37.56;101083.50;5029109;28;20041;-89
2023/05/27 11:20:51;;;;;;;9.60;3.38;;;;;;;22.25;38.53;101059.19;5024482;28;20080;-89
2023/05/27 11:23:48;;;;;;;10.23;3.33;;;;;;;22.44;39.04;101071.97;5012287;28;20482;-90
2023/05/27 11:27:00;;;;;;;9.35;3.70;;;;;;;22.28;38.21;101072.44;5025549;28;20045;-89
2023/05/27 11:29:33;;;;;;;14.73;3.45;;;;;;;21.89;38.99;101053.19;5024696;28;20054;-90
2023/05/27 11:32:16;;;;;;;7.25;3.78;;;;;;;22.11;38.93;101065.75;5009803;28;20188;-90
2023/05/27 11:34:52;;;;;;;9.98;3.70;;;;;;;22.28;37.97;101056.22;5027020;28;20048;-90
2023/05/27 11:37:22;;;;;;;12.65;3.35;;;;;;;22.38;38.03;101059.84;5028661;28;20077;-89
2023/05/27 11:40:22;;;;;;;9.88;3.65;;;;;;;22.36;38.41;101056.41;5038122;28;20092;-89
2023/05/27 11:42:50;;;;;;;8.13;3.33;;;;;;;22.27;38.30;101046.44;5019126;28;20105;-89
2023/05/27 11:45:35;;;;;;;6.88;3.20;;;;;;;22.46;38.89;101051.09;5015648;28;20064;-88
2023/05/27 11:48:18;;;;;;;9.63;3.28;;;;;;;22.62;38.36;101038.84;5032444;28;20054;-87
2023/05/27 11:50:54;;;;;;;13.43;3.83;;;;;;;22.90;37.19;101041.84;5036545;28;20050;-88
2023/05/27 11:53:22;;;;;;;10.75;3.40;;;;;;;23.03;36.99;101031.66;5035609;28;20094;-88
2023/05/27 11:55:53;;;;;;;7.50;2.90;;;;;;;23.03;36.90;101020.84;5032105;28;20041;-89
2023/05/27 11:58:21;;;;;;;10.60;3.80;;;;;;;23.16;36.81;101031.41;5024351;28;20057;-89
2023/05/27 12:00:55;;;;;;;9.05;3.65;;;;;;;23.22;37.17;101009.25;5010471;28;20050;-90
2023/05/27 12:03:23;;;;;;;12.18;3.85;;;;;;;23.32;36.42;101008.28;5025703;28;20485;-89
2023/05/27 12:05:56;;;;;;;7.68;3.53;;;;;;;23.31;36.16;101003.88;5012795;28;20056;-89
2023/05/27 12:08:28;;;;;;;7.35;3.30;;;;;;;23.41;36.39;101007.47;5025231;28;20057;-88